Time;durP1;ratioP1;P1;durP2;ratioP2;P2;SDS_P1;SDS_P2;PMS_P1;PMS_P2;Temp;Humidity;BMP_temperature;BMP_pressure;BME280_temperature;BME280_humidity;BME280_pressure;Samples;Min_cycle;Max_cycle;Signal;HPM_P1;HPM_P2
2021/04/30 00:01:25;;;;;;;5.87;5.47;;;12.10;74.60;;;;;;10524514;28;20574;-78
2021/04/30 00:06:27;;;;;;;5.90;5.47;;;12.10;73.90;;;;;;10524700;28;20243;-79
2021/04/30 00:11:29;;;;;;;5.83;5.43;;;12.20;73.60;;;;;;10529233;28;20356;-78
2021/04/30 00:16:31;;;;;;;6.43;5.93;;;12.20;72.90;;;;;;10520282;28;20229;-78
2021/04/30 00:21:33;;;;;;;6.83;6.23;;;12.20;72.60;;;;;;10539003;28;20234;-79
2021/04/30 00:26:35;;;;;;;5.90;5.50;;;12.20;71.80;;;;;;10538366;28;20216;-78
2021/04/30 00:31:37;;;;;;;6.60;5.83;;;12.20;72.10;;;;;;10519699;28;20644;-78
2021/04/30 00:36:39;;;;;;;5.77;5.37;;;12.30;72.10;;;;;;10520864;28;20262;-78
2021/04/30 00:41:42;;;;;;;6.47;5.97;;;12.30;72.50;;;;;;10540008;28;20196;-78
2021/04/30 00:46:44;;;;;;;7.53;6.93;;;12.30;70.60;;;;;;10538420;28;20224;-78
2021/04/30 00:51:46;;;;;;;7.10;6.60;;;12.20;70.80;;;;;;10538621;28;20230;-78
2021/04/30 00:56:48;;;;;;;6.90;6.40;;;12.20;72.00;;;;;;10538261;28;20244;-78
2021/04/30 01:01:50;;;;;;;6.70;6.20;;;12.20;71.10;;;;;;10534008;28;20230;-79
2021/04/30 01:06:51;;;;;;;7.67;6.90;;;12.20;71.20;;;;;;10525957;28;20222;-78
2021/04/30 01:11:54;;;;;;;7.03;6.53;;;12.10;71.00;;;;;;10528309;28;20230;-79
2021/04/30 01:16:55;;;;;;;8.10;7.40;;;12.10;70.80;;;;;;10545967;28;20219;-78
2021/04/30 01:21:59;;;;;;;7.63;6.93;;;12.00;70.30;;;;;;10546563;28;20236;-79
2021/04/30 01:27:00;;;;;;;8.17;7.37;;;12.00;70.00;;;;;;10528381;28;20238;-79
2021/04/30 01:32:02;;;;;;;7.77;7.07;;;12.00;69.80;;;;;;10545077;28;20243;-78
2021/04/30 01:37:05;;;;;;;8.40;7.70;;;11.90;68.80;;;;;;10545656;28;20227;-79
2021/04/30 01:42:08;;;;;;;7.57;6.87;;;11.90;68.40;;;;;;10528452;28;20196;-79
2021/04/30 01:47:10;;;;;;;7.70;7.10;;;11.90;68.50;;;;;;10545344;28;20259;-79
2021/04/30 01:52:12;;;;;;;9.00;8.20;;;11.90;67.30;;;;;;10546186;28;20226;-78
2021/04/30 01:57:14;;;;;;;8.10;7.40;;;11.80;67.90;;;;;;10545289;28;20772;-78
2021/04/30 02:02:16;;;;;;;8.23;7.53;;;11.80;67.80;;;;;;10544981;28;20578;-79
2021/04/30 02:07:18;;;;;;;8.10;7.30;;;11.90;67.80;;;;;;10543790;28;20746;-78
2021/04/30 02:12:24;;;;;;;8.27;7.57;;;11.90;68.40;;;;;;10525876;28;20288;-78
2021/04/30 02:17:30;;;;;;;9.00;8.30;;;11.90;68.80;;;;;;10524242;28;20343;-78
2021/04/30 02:22:32;;;;;;;8.90;8.20;;;11.90;69.00;;;;;;10542929;28;20188;-79
2021/04/30 02:27:35;;;;;;;7.80;7.20;;;11.90;68.50;;;;;;10542930;28;20652;-78
2021/04/30 02:32:37;;;;;;;10.30;9.40;;;11.90;70.30;;;;;;10542498;28;20255;-78
2021/04/30 02:37:40;;;;;;;9.47;8.37;;;11.90;74.70;;;;;;10539255;28;20220;-78
2021/04/30 02:42:42;;;;;;;9.20;8.50;;;11.80;72.90;;;;;;10524262;28;20601;-78
2021/04/30 02:47:46;;;;;;;11.10;10.00;;;11.80;75.40;;;;;;10540949;28;20299;-78
2021/04/30 02:52:49;;;;;;;10.60;9.80;;;11.80;75.40;;;;;;10541207;28;20277;-78
2021/04/30 02:57:52;;;;;;;9.37;8.53;;;11.70;76.10;;;;;;10540166;28;20319;-78
2021/04/30 03:02:55;;;;;;;10.17;9.33;;;11.60;77.10;;;;;;10540760;28;20656;-78
2021/04/30 03:07:57;;;;;;;9.40;8.50;;;11.40;77.80;;;;;;10539888;28;20211;-78
2021/04/30 03:12:59;;;;;;;9.93;9.13;;;11.20;79.60;;;;;;10539828;28;20215;-78
2021/04/30 03:18:01;;;;;;;11.33;10.23;;;11.00;80.90;;;;;;10539137;28;20303;-78
2021/04/30 03:23:03;;;;;;;10.17;9.27;;;10.80;82.70;;;;;;10538131;28;20192;-78
2021/04/30 03:28:05;;;;;;;11.40;10.40;;;10.80;81.90;;;;;;10537616;28;20228;-78
2021/04/30 03:33:06;;;;;;;9.97;9.17;;;10.70;82.40;;;;;;10532755;28;20215;-78
2021/04/30 03:38:09;;;;;;;9.77;8.97;;;10.60;82.80;;;;;;10521035;22;20248;-79
2021/04/30 03:43:10;;;;;;;12.77;9.90;;;10.50;82.10;;;;;;10502152;28;20231;-79
2021/04/30 03:48:12;;;;;;;11.60;9.80;;;10.40;82.80;;;;;;10500454;28;20314;-79
2021/04/30 03:53:14;;;;;;;11.33;10.43;;;10.40;83.00;;;;;;10490416;28;20309;-79
2021/04/30 03:58:16;;;;;;;11.10;10.10;;;10.40;82.50;;;;;;10474709;28;20236;-79
2021/04/30 04:03:18;;;;;;;11.90;10.83;;;10.50;81.60;;;;;;10498484;28;20254;-80
2021/04/30 04:08:20;;;;;;;11.30;10.40;;;10.70;79.10;;;;;;10494092;28;20220;-79
2021/04/30 04:13:23;;;;;;;11.10;10.10;;;10.80;77.60;;;;;;10481035;28;20228;-80
2021/04/30 04:18:25;;;;;;;10.40;9.60;;;10.90;76.20;;;;;;10498650;28;20684;-81
2021/04/30 04:23:28;;;;;;;11.90;10.70;;;11.00;76.10;;;;;;10475750;28;20247;-79
2021/04/30 04:28:29;;;;;;;10.80;9.80;;;11.10;72.80;;;;;;10501950;28;20304;-81
2021/04/30 04:33:32;;;;;;;11.60;10.60;;;11.20;73.00;;;;;;10489312;28;20591;-80
2021/04/30 04:38:34;;;;;;;14.17;10.07;;;11.20;74.50;;;;;;10509683;28;20228;-80
2021/04/30 04:43:36;;;;;;;10.87;9.90;;;11.20;72.70;;;;;;10475246;28;20215;-80
2021/04/30 04:48:37;;;;;;;10.97;10.07;;;11.20;72.10;;;;;;10483795;28;20224;-81
2021/04/30 04:53:40;;;;;;;11.73;10.73;;;11.30;71.70;;;;;;10469632;28;20283;-82
2021/04/30 04:58:41;;;;;;;11.20;10.23;;;11.30;72.00;;;;;;10490540;28;20228;-83
2021/04/30 05:03:43;;;;;;;10.23;9.40;;;11.40;72.00;;;;;;10490792;28;20208;-83
2021/04/30 05:08:45;;;;;;;11.47;10.47;;;11.40;71.20;;;;;;10478202;28;20224;-84
2021/04/30 05:13:47;;;;;;;11.90;10.90;;;11.40;71.40;;;;;;10495703;28;20210;-83
2021/04/30 05:18:49;;;;;;;11.47;10.40;;;11.50;71.70;;;;;;10481321;28;20299;-82
2021/04/30 05:23:52;;;;;;;11.90;10.90;;;11.50;72.00;;;;;;10489576;28;20295;-82
2021/04/30 05:28:53;;;;;;;11.60;10.60;;;11.50;72.20;;;;;;10464492;28;20228;-83
2021/04/30 05:33:55;;;;;;;11.23;10.27;;;11.50;71.70;;;;;;10451943;28;20738;-83
2021/04/30 05:38:57;;;;;;;12.13;10.93;;;11.60;71.20;;;;;;10489608;28;20224;-83
2021/04/30 05:43:59;;;;;;;12.57;11.47;;;11.60;70.90;;;;;;10468734;28;20208;-82
2021/04/30 05:49:01;;;;;;;12.67;11.57;;;11.60;71.40;;;;;;10483277;28;20316;-84
2021/04/30 05:54:04;;;;;;;11.67;10.60;;;11.70;70.90;;;;;;10490484;28;20231;-83
2021/04/30 05:59:06;;;;;;;12.77;11.50;;;11.70;72.50;;;;;;10491535;28;20752;-83
2021/04/30 06:04:07;;;;;;;12.77;11.40;;;11.80;72.00;;;;;;10492420;28;20204;-83
2021/04/30 06:09:10;;;;;;;11.80;10.70;;;11.90;71.70;;;;;;10491185;28;20232;-83
2021/04/30 06:14:12;;;;;;;12.30;11.20;;;11.90;70.30;;;;;;10494798;28;20205;-82
2021/04/30 06:19:14;;;;;;;10.53;9.63;;;12.00;69.60;;;;;;10487522;28;20232;-83
2021/04/30 06:24:16;;;;;;;9.97;8.97;;;12.10;68.90;;;;;;10485856;28;20221;-83
2021/04/30 06:29:18;;;;;;;11.20;10.30;;;12.10;69.30;;;;;;10485114;28;20438;-83
2021/04/30 06:34:19;;;;;;;10.70;9.80;;;12.10;67.50;;;;;;10512423;28;20708;-82
2021/04/30 06:39:22;;;;;;;10.97;9.97;;;12.20;69.70;;;;;;10518838;28;20224;-82
2021/04/30 06:44:25;;;;;;;11.20;10.20;;;12.20;67.50;;;;;;10496946;28;20201;-82
2021/04/30 06:49:28;;;;;;;11.30;10.30;;;12.10;67.80;;;;;;10460764;28;20228;-81
2021/04/30 06:54:30;;;;;;;11.20;10.27;;;12.00;67.70;;;;;;10477764;28;20203;-83
2021/04/30 06:59:32;;;;;;;10.87;9.80;;;12.00;68.50;;;;;;10508438;28;20727;-84
2021/04/30 07:04:34;;;;;;;11.23;10.23;;;12.00;67.80;;;;;;10470594;28;20204;-83
2021/04/30 07:09:36;;;;;;;12.40;11.10;;;12.00;68.80;;;;;;10485209;28;20232;-83
2021/04/30 07:14:38;;;;;;;11.37;10.40;;;11.90;68.80;;;;;;10486878;28;20212;-83
2021/04/30 07:19:40;;;;;;;10.70;9.70;;;11.90;69.20;;;;;;10490981;28;20225;-81
2021/04/30 07:24:43;;;;;;;10.90;9.80;;;11.80;68.70;;;;;;10494617;28;20254;-82
2021/04/30 07:29:45;;;;;;;10.97;9.97;;;11.80;67.80;;;;;;10495572;28;20570;-82
2021/04/30 07:34:47;;;;;;;12.10;11.07;;;11.80;68.80;;;;;;10495464;28;20243;-82
2021/04/30 07:39:50;;;;;;;10.27;9.37;;;11.80;69.20;;;;;;10480055;28;20224;-82
2021/04/30 07:44:51;;;;;;;12.07;10.90;;;11.90;69.20;;;;;;10482996;28;20714;-81
2021/04/30 07:49:53;;;;;;;10.73;9.87;;;12.00;69.30;;;;;;10487737;28;20248;-82
2021/04/30 07:54:55;;;;;;;11.50;10.50;;;12.00;69.60;;;;;;10487608;28;20208;-80
2021/04/30 07:59:57;;;;;;;11.10;10.10;;;12.00;69.20;;;;;;10482813;28;20235;-80
2021/04/30 08:04:59;;;;;;;10.93;9.87;;;12.00;68.50;;;;;;10478369;28;20204;-81
2021/04/30 08:10:01;;;;;;;10.30;9.50;;;12.00;70.00;;;;;;10482571;28;20220;-80
2021/04/30 08:15:04;;;;;;;10.60;9.80;;;11.90;70.30;;;;;;10484561;28;20208;-80
2021/04/30 08:20:08;;;;;;;10.40;9.40;;;11.90;70.50;;;;;;10480839;28;20222;-81
2021/04/30 08:25:12;;;;;;;11.30;10.20;;;12.00;70.50;;;;;;10481791;28;20257;-82
2021/04/30 08:30:15;;;;;;;9.87;9.00;;;12.00;71.40;;;;;;10470550;28;20750;-81
2021/04/30 08:35:17;;;;;;;11.60;10.47;;;12.00;70.00;;;;;;10478980;28;20204;-81
2021/04/30 08:40:20;;;;;;;11.50;10.40;;;12.00;70.10;;;;;;10482426;28;20228;-81
2021/04/30 08:45:21;;;;;;;11.57;9.60;;;12.00;70.50;;;;;;10486664;28;20318;-81
2021/04/30 08:50:23;;;;;;;10.57;9.57;;;12.10;70.70;;;;;;10487481;28;20236;-81
2021/04/30 08:55:25;;;;;;;10.20;9.40;;;12.20;71.60;;;;;;10481919;28;20196;-82
2021/04/30 09:00:29;;;;;;;9.63;8.73;;;12.40;70.90;;;;;;10488020;28;20319;-81
2021/04/30 09:05:32;;;;;;;9.53;8.73;;;12.50;69.10;;;;;;10502921;28;20204;-82
2021/04/30 09:10:40;;;;;;;10.83;9.90;;;12.60;69.60;;;;;;10476415;28;20228;-81
2021/04/30 09:15:44;;;;;;;11.30;10.30;;;12.60;69.20;;;;;;10487827;28;20212;-82
2021/04/30 09:20:47;;;;;;;11.03;9.97;;;12.70;69.40;;;;;;10487114;28;20275;-81
2021/04/30 09:25:50;;;;;;;12.33;10.50;;;12.70;69.40;;;;;;10481427;28;20273;-80
2021/04/30 09:30:52;;;;;;;12.90;11.53;;;12.70;69.70;;;;;;10494234;28;20278;-81
2021/04/30 09:35:54;;;;;;;13.20;11.90;;;12.60;70.50;;;;;;10497257;28;20215;-80
2021/04/30 09:41:08;;;;;;;12.43;11.43;;;12.50;70.80;;;;;;10482641;28;20292;-81
2021/04/30 09:46:27;;;;;;;12.70;11.50;;;12.60;72.20;;;;;;10488045;28;20204;-83
2021/04/30 09:51:46;;;;;;;13.27;12.17;;;12.70;70.50;;;;;;10479973;28;20259;-82
2021/04/30 09:56:50;;;;;;;12.63;11.53;;;12.70;71.60;;;;;;10496138;28;20292;-81
2021/04/30 10:02:11;;;;;;;12.53;11.33;;;12.70;71.10;;;;;;10459720;28;20208;-80
2021/04/30 10:07:13;;;;;;;20.27;13.30;;;12.70;71.50;;;;;;10476427;28;20251;-83
2021/04/30 10:12:21;;;;;;;13.63;12.43;;;12.60;71.90;;;;;;10480328;28;20231;-82
2021/04/30 10:17:23;;;;;;;15.00;13.70;;;12.60;72.70;;;;;;10457178;28;20719;-83
2021/04/30 10:22:27;;;;;;;14.33;13.03;;;12.60;73.30;;;;;;10490002;28;20197;-82
2021/04/30 10:27:34;;;;;;;14.87;13.57;;;12.60;74.90;;;;;;10485043;28;20311;-83
2021/04/30 10:32:40;;;;;;;15.43;14.07;;;12.50;75.80;;;;;;10471200;28;20290;-83
2021/04/30 10:37:45;;;;;;;17.13;14.33;;;12.50;76.60;;;;;;10490502;28;20224;-81
2021/04/30 10:42:48;;;;;;;16.17;14.53;;;12.40;78.30;;;;;;10470372;28;20573;-83
2021/04/30 10:48:07;;;;;;;16.33;14.93;;;12.20;79.30;;;;;;10494801;28;20228;-82
2021/04/30 10:53:26;;;;;;;16.90;15.13;;;12.20;78.90;;;;;;10460287;28;20251;-82
2021/04/30 10:58:33;;;;;;;16.53;15.10;;;12.00;78.90;;;;;;10475750;28;20324;-82
2021/04/30 11:03:35;;;;;;;17.70;16.00;;;11.90;80.00;;;;;;10493159;28;20208;-80
2021/04/30 11:08:52;;;;;;;19.73;17.60;;;11.80;83.50;;;;;;10467941;28;20235;-81
2021/04/30 11:14:32;;;;;;;20.13;18.33;;;11.60;84.90;;;;;;10470056;28;20239;-80
2021/04/30 11:19:45;;;;;;;20.40;18.40;;;11.40;88.30;;;;;;10492344;28;20224;-82
2021/04/30 11:24:51;;;;;;;20.40;18.40;;;11.10;90.30;;;;;;10484529;28;20212;-81
2021/04/30 11:30:14;;;;;;;19.97;17.97;;;10.80;91.00;;;;;;10491559;28;20680;-82
2021/04/30 11:35:16;;;;;;;22.27;20.23;;;10.60;92.20;;;;;;10486115;28;20235;-81
2021/04/30 11:40:18;;;;;;;22.40;20.43;;;10.40;93.30;;;;;;10468771;28;20298;-80
2021/04/30 11:45:22;;;;;;;22.30;20.50;;;10.20;94.30;;;;;;10463952;28;20233;-82
2021/04/30 11:50:23;;;;;;;20.67;18.87;;;10.10;94.80;;;;;;10487152;28;20232;-82
2021/04/30 11:55:25;;;;;;;22.93;20.77;;;9.90;95.40;;;;;;10463665;28;20212;-82
2021/04/30 12:00:30;;;;;;;21.03;19.03;;;9.70;96.40;;;;;;10489190;28;20711;-81
2021/04/30 12:05:32;;;;;;;23.70;21.53;;;9.50;97.20;;;;;;10493735;28;20206;-81
2021/04/30 12:10:36;;;;;;;23.90;21.80;;;9.40;98.70;;;;;;10474451;28;20688;-80
2021/04/30 12:15:41;;;;;;;22.50;20.60;;;9.40;99.90;;;;;;10474127;28;20304;-78
2021/04/30 12:20:43;;;;;;;22.43;20.43;;;9.30;99.90;;;;;;10481412;28;20311;-79
2021/04/30 12:25:46;;;;;;;24.90;22.87;;;9.30;99.90;;;;;;10499884;28;20205;-79
2021/04/30 12:31:08;;;;;;;22.90;20.70;;;9.20;99.90;;;;;;10504168;28;20646;-80
2021/04/30 12:36:12;;;;;;;25.80;23.60;;;9.30;99.90;;;;;;10503731;28;20259;-79
2021/04/30 12:41:15;;;;;;;23.97;22.07;;;9.30;99.90;;;;;;10508098;28;20239;-80
2021/04/30 12:46:19;;;;;;;24.80;22.63;;;9.20;99.90;;;;;;10493200;28;20274;-79
2021/04/30 12:51:24;;;;;;;25.07;22.87;;;9.30;99.90;;;;;;10488957;28;20224;-79
2021/04/30 12:56:28;;;;;;;21.10;19.30;;;9.30;99.90;;;;;;10491665;28;20204;-79
2021/04/30 13:01:30;;;;;;;24.73;22.63;;;9.30;99.90;;;;;;10480029;28;20232;-80
2021/04/30 13:06:35;;;;;;;22.77;20.67;;;9.40;99.90;;;;;;10520897;28;20204;-79
2021/04/30 13:11:37;;;;;;;25.77;23.33;;;9.40;99.90;;;;;;10506308;28;20228;-80
2021/04/30 13:16:42;;;;;;;24.43;22.30;;;9.40;99.90;;;;;;10510070;28;20295;-79
2021/04/30 13:21:45;;;;;;;23.93;21.93;;;9.40;99.90;;;;;;10493234;28;20585;-79
2021/04/30 13:27:02;;;;;;;23.37;21.37;;;9.40;99.90;;;;;;10504652;28;20223;-81
2021/04/30 13:32:12;;;;;;;24.73;22.63;;;9.40;99.90;;;;;;10502125;28;20224;-81
2021/04/30 13:37:15;;;;;;;24.10;22.10;;;9.40;99.90;;;;;;10484317;28;20290;-82
2021/04/30 13:42:20;;;;;;;22.70;20.80;;;9.30;99.90;;;;;;10465098;28;20580;-80
2021/04/30 13:47:23;;;;;;;25.17;22.97;;;9.30;99.90;;;;;;10481797;28;20307;-80
2021/04/30 13:52:26;;;;;;;24.27;22.27;;;9.40;99.90;;;;;;10483196;28;20259;-81
2021/04/30 13:57:28;;;;;;;24.70;22.60;;;9.40;99.90;;;;;;10483703;28;20220;-81
2021/04/30 14:02:30;;;;;;;24.10;21.90;;;9.40;99.90;;;;;;10505589;28;20610;-81
2021/04/30 14:07:32;;;;;;;24.90;23.00;;;9.40;99.90;;;;;;10465010;28;20224;-81
2021/04/30 14:12:33;;;;;;;25.03;22.83;;;9.40;99.90;;;;;;10489153;28;20718;-83
2021/04/30 14:17:36;;;;;;;24.50;22.50;;;9.40;99.90;;;;;;10503364;28;20220;-82
2021/04/30 14:22:38;;;;;;;24.90;22.70;;;9.40;99.90;;;;;;10510433;28;20279;-83
2021/04/30 14:27:40;;;;;;;24.80;22.60;;;9.40;99.90;;;;;;10493850;28;20255;-81
2021/04/30 14:32:42;;;;;;;26.80;24.20;;;9.50;99.90;;;;;;10480563;28;20295;-81
2021/04/30 14:37:44;;;;;;;24.30;22.10;;;9.60;99.90;;;;;;10480057;28;20281;-80
2021/04/30 14:42:45;;;;;;;25.77;23.53;;;9.60;99.90;;;;;;10487259;28;20235;-81
2021/04/30 14:47:49;;;;;;;24.77;22.77;;;9.70;99.90;;;;;;10478430;28;20769;-79
2021/04/30 14:52:51;;;;;;;23.70;21.80;;;9.70;99.90;;;;;;10470140;28;20703;-79
2021/04/30 14:57:52;;;;;;;23.80;21.80;;;9.70;99.90;;;;;;10485154;28;20609;-80
2021/04/30 15:02:55;;;;;;;24.53;22.17;;;9.70;99.90;;;;;;10480501;28;20205;-81
2021/04/30 15:07:57;;;;;;;23.67;21.57;;;9.80;99.90;;;;;;10500533;28;20668;-80
2021/04/30 15:13:00;;;;;;;23.67;21.47;;;9.90;99.90;;;;;;10507246;28;20215;-79
2021/04/30 15:18:03;;;;;;;21.43;19.63;;;10.10;99.90;;;;;;10483925;28;20236;-82
2021/04/30 15:23:04;;;;;;;31.77;28.73;;;10.10;99.90;;;;;;10503493;28;20211;-81
2021/04/30 15:28:06;;;;;;;20.60;18.67;;;10.20;99.90;;;;;;10484055;28;20231;-81
2021/04/30 15:33:10;;;;;;;20.07;18.27;;;10.30;99.90;;;;;;10503457;28;20660;-81
2021/04/30 15:38:11;;;;;;;20.20;18.20;;;10.30;99.90;;;;;;10506613;28;20315;-81
2021/04/30 15:43:13;;;;;;;18.50;16.90;;;10.30;99.90;;;;;;10470823;28;20268;-82
2021/04/30 15:48:16;;;;;;;20.43;18.53;;;10.20;99.90;;;;;;10462975;28;20323;-80
2021/04/30 15:53:17;;;;;;;20.40;18.50;;;10.20;99.90;;;;;;10486695;28;20232;-80
2021/04/30 15:58:19;;;;;;;19.67;17.87;;;10.40;99.90;;;;;;10479304;28;20671;-80
2021/04/30 16:03:21;;;;;;;19.07;17.20;;;10.60;99.90;;;;;;10499702;28;20284;-79
2021/04/30 16:08:24;;;;;;;17.30;15.70;;;10.80;99.90;;;;;;10481372;28;20227;-80
2021/04/30 16:13:26;;;;;;;16.40;14.90;;;10.90;99.90;;;;;;10475245;28;20278;-78
2021/04/30 16:18:29;;;;;;;16.87;15.37;;;10.90;99.90;;;;;;10477817;28;20216;-80
2021/04/30 16:23:31;;;;;;;16.23;14.53;;;11.00;99.90;;;;;;10476255;28;20196;-78
2021/04/30 16:28:34;;;;;;;18.17;16.57;;;11.10;99.90;;;;;;10496784;28;20225;-80
2021/04/30 16:33:38;;;;;;;17.57;15.93;;;11.00;99.90;;;;;;10494156;28;20224;-80
2021/04/30 16:38:39;;;;;;;18.70;17.20;;;10.90;99.90;;;;;;10485062;28;20256;-79
2021/04/30 16:43:41;;;;;;;19.33;17.63;;;10.90;99.90;;;;;;10482993;28;20354;-78
2021/04/30 16:48:46;;;;;;;18.20;16.57;;;10.80;99.90;;;;;;10484972;28;20216;-80
2021/04/30 16:53:48;;;;;;;18.93;17.30;;;10.80;99.90;;;;;;10478866;28;20220;-78
2021/04/30 16:58:51;;;;;;;19.10;17.20;;;10.80;99.90;;;;;;10503535;28;20228;-77
2021/04/30 17:03:55;;;;;;;19.17;17.50;;;10.70;99.90;;;;;;10463403;28;20291;-79
2021/04/30 17:08:57;;;;;;;18.60;16.80;;;10.70;99.90;;;;;;10493815;28;20703;-79
2021/04/30 17:13:59;;;;;;;20.43;18.53;;;10.70;99.90;;;;;;10494556;28;20235;-79
2021/04/30 17:19:05;;;;;;;18.87;17.17;;;10.70;99.90;;;;;;10493356;28;20566;-78
2021/04/30 17:24:08;;;;;;;21.60;19.40;;;10.60;99.90;;;;;;10492872;28;20228;-79
2021/04/30 17:29:09;;;;;;;20.03;18.03;;;10.50;99.90;;;;;;10492692;28;20228;-78
2021/04/30 17:34:12;;;;;;;21.60;19.47;;;10.50;99.90;;;;;;10486573;28;20703;-77
2021/04/30 17:39:13;;;;;;;22.83;20.73;;;10.40;99.90;;;;;;10474065;28;20232;-76
2021/04/30 17:44:15;;;;;;;21.50;19.50;;;10.40;99.90;;;;;;10475398;28;20208;-76
2021/04/30 17:49:18;;;;;;;22.47;20.37;;;10.30;99.90;;;;;;10496744;28;20228;-76
2021/04/30 17:54:19;;;;;;;26.07;23.67;;;10.20;99.90;;;;;;10500057;28;20220;-78
2021/04/30 17:59:21;;;;;;;24.83;21.80;;;10.20;99.90;;;;;;10481541;28;20613;-78
2021/04/30 18:04:25;;;;;;;23.77;21.47;;;10.20;99.90;;;;;;10500524;28;20258;-76
2021/04/30 18:09:27;;;;;;;26.20;23.50;;;10.20;99.90;;;;;;10498673;28;20224;-79
2021/04/30 18:14:29;;;;;;;24.70;22.20;;;10.20;99.90;;;;;;10499038;28;20232;-77
2021/04/30 18:19:35;;;;;;;24.23;22.03;;;10.10;99.90;;;;;;10499447;28;20295;-76
2021/04/30 18:24:39;;;;;;;28.63;25.57;;;10.10;99.90;;;;;;10480065;28;20204;-77
2021/04/30 18:29:41;;;;;;;25.80;23.40;;;10.00;99.90;;;;;;10498768;28;20228;-77
2021/04/30 18:34:43;;;;;;;27.10;24.50;;;9.90;99.90;;;;;;10498928;28;20283;-79
2021/04/30 18:39:45;;;;;;;29.77;26.57;;;9.90;99.90;;;;;;10480498;28;20259;-77
2021/04/30 18:44:47;;;;;;;28.73;25.93;;;9.80;99.90;;;;;;10488588;28;20565;-79
2021/04/30 18:49:50;;;;;;;27.27;24.67;;;9.70;99.90;;;;;;10484148;28;20326;-80
2021/04/30 18:54:52;;;;;;;29.73;26.13;;;9.60;99.90;;;;;;10473203;28;20664;-81
2021/04/30 18:59:54;;;;;;;29.50;26.70;;;9.50;99.90;;;;;;10489534;28;20220;-80
2021/04/30 19:04:57;;;;;;;28.07;25.37;;;9.50;99.90;;;;;;10460285;28;20240;-78
2021/04/30 19:09:59;;;;;;;31.47;28.37;;;9.60;99.90;;;;;;10477638;28;20220;-79
2021/04/30 19:15:01;;;;;;;30.70;27.97;;;9.60;99.90;;;;;;10482347;28;20205;-78
2021/04/30 19:20:05;;;;;;;30.43;27.33;;;9.50;99.90;;;;;;10467743;28;20708;-80
2021/04/30 19:25:09;;;;;;;32.13;29.20;;;9.60;99.90;;;;;;10459147;28;20972;-80
2021/04/30 19:30:12;;;;;;;35.63;32.13;;;9.50;99.90;;;;;;10474150;28;20221;-79
2021/04/30 19:35:14;;;;;;;34.13;31.03;;;9.50;99.90;;;;;;10466056;28;20287;-80
2021/04/30 19:40:16;;;;;;;38.23;34.20;;;9.50;99.90;;;;;;10485828;28;20252;-77
2021/04/30 19:45:19;;;;;;;39.83;35.80;;;9.50;99.90;;;;;;10485718;28;20224;-79
2021/04/30 19:50:23;;;;;;;39.33;35.43;;;9.50;99.90;;;;;;10486680;28;20775;-79
2021/04/30 19:55:26;;;;;;;40.73;36.73;;;9.60;99.90;;;;;;10467790;28;20255;-77
2021/04/30 20:00:28;;;;;;;39.90;35.90;;;9.60;99.90;;;;;;10484775;28;20231;-80
2021/04/30 20:05:31;;;;;;;42.90;38.60;;;9.60;99.90;;;;;;10479938;28;20212;-77
2021/04/30 20:10:33;;;;;;;39.87;35.83;;;9.70;99.90;;;;;;10483836;28;20696;-77
2021/04/30 20:15:37;;;;;;;39.77;35.97;;;9.70;99.90;;;;;;10459474;28;20582;-78
2021/04/30 20:20:40;;;;;;;38.50;34.60;;;9.70;99.90;;;;;;10460248;28;20236;-79
2021/04/30 20:25:41;;;;;;;37.77;34.17;;;9.70;99.90;;;;;;10484189;28;21305;-79
2021/04/30 20:30:43;;;;;;;44.13;39.60;;;9.70;99.90;;;;;;10465555;28;20727;-79
2021/04/30 20:35:47;;;;;;;38.80;35.10;;;9.70;99.90;;;;;;10482333;28;20204;-80
2021/04/30 20:40:49;;;;;;;37.77;34.07;;;9.70;99.90;;;;;;10458975;28;20275;-80
2021/04/30 20:45:54;;;;;;;37.83;34.13;;;9.70;99.90;;;;;;10483331;28;20204;-80
2021/04/30 20:50:57;;;;;;;38.83;34.27;;;9.60;99.90;;;;;;10444695;28;20228;-78
2021/04/30 20:55:58;;;;;;;37.17;33.27;;;9.60;99.90;;;;;;10484685;28;20566;-78
2021/04/30 21:01:03;;;;;;;38.47;34.77;;;9.60;99.90;;;;;;10483700;28;20223;-78
2021/04/30 21:06:08;;;;;;;36.00;32.40;;;9.50;99.90;;;;;;10483828;28;20240;-79
2021/04/30 21:11:19;;;;;;;35.57;32.17;;;9.60;99.90;;;;;;10465556;28;20740;-80
2021/04/30 21:16:21;;;;;;;34.43;31.07;;;9.50;99.90;;;;;;10476341;28;20232;-80
2021/04/30 21:21:24;;;;;;;37.47;33.80;;;9.50;99.90;;;;;;10450297;28;20239;-80
2021/04/30 21:26:26;;;;;;;38.97;35.10;;;9.40;99.90;;;;;;10491269;28;20231;-79
2021/04/30 21:31:28;;;;;;;37.97;34.17;;;9.40;99.90;;;;;;10491538;28;20231;-77
2021/04/30 21:36:30;;;;;;;40.40;36.20;;;9.40;99.90;;;;;;10491054;28;20668;-78
2021/04/30 21:41:32;;;;;;;36.70;32.60;;;9.30;99.90;;;;;;10485296;28;20320;-77
2021/04/30 21:46:34;;;;;;;35.60;32.10;;;9.20;99.90;;;;;;10487581;28;20287;-79
2021/04/30 21:51:38;;;;;;;38.23;34.27;;;9.20;99.90;;;;;;10468097;28;20359;-79
2021/04/30 21:56:40;;;;;;;37.87;33.83;;;9.10;99.90;;;;;;10486820;28;20691;-77
2021/04/30 22:01:45;;;;;;;37.00;33.20;;;9.00;99.90;;;;;;10499752;28;20657;-78
2021/04/30 22:06:48;;;;;;;39.43;35.40;;;9.00;99.90;;;;;;10492937;28;20266;-77
2021/04/30 22:11:53;;;;;;;40.50;36.33;;;9.00;99.90;;;;;;10494025;28;20307;-79
2021/04/30 22:16:55;;;;;;;39.10;35.00;;;8.90;99.90;;;;;;10499845;28;20228;-78
2021/04/30 22:21:58;;;;;;;37.03;33.37;;;8.90;99.90;;;;;;10503780;28;20200;-79
2021/04/30 22:27:00;;;;;;;37.00;33.27;;;8.90;99.90;;;;;;10482037;28;20227;-79
2021/04/30 22:32:04;;;;;;;36.40;32.70;;;8.90;99.90;;;;;;10498472;28;20236;-79
2021/04/30 22:37:07;;;;;;;37.50;33.67;;;8.90;99.90;;;;;;10501441;28;20323;-79
2021/04/30 22:42:11;;;;;;;36.17;32.43;;;8.90;99.90;;;;;;10473932;28;20629;-79
2021/04/30 22:47:13;;;;;;;40.67;36.50;;;8.90;99.90;;;;;;10481087;28;20228;-77
2021/04/30 22:52:15;;;;;;;37.47;33.43;;;8.90;99.90;;;;;;10487509;28;20305;-79
2021/04/30 22:57:17;;;;;;;39.50;35.17;;;9.00;99.90;;;;;;10515427;28;20228;-79
2021/04/30 23:02:19;;;;;;;38.70;34.50;;;9.00;99.90;;;;;;10491841;28;20200;-80
2021/04/30 23:07:26;;;;;;;37.87;33.97;;;9.00;99.90;;;;;;10497289;28;20224;-77
2021/04/30 23:12:27;;;;;;;40.63;36.13;;;9.00;99.90;;;;;;10499897;28;20591;-79
2021/04/30 23:17:29;;;;;;;41.83;37.27;;;9.10;99.90;;;;;;10479156;28;20772;-80
2021/04/30 23:22:32;;;;;;;42.00;37.53;;;9.10;99.90;;;;;;10496796;28;20563;-80
2021/04/30 23:27:33;;;;;;;40.30;35.97;;;9.10;99.90;;;;;;10515384;28;20735;-79
2021/04/30 23:32:35;;;;;;;40.63;36.23;;;9.20;99.90;;;;;;10506235;28;20278;-79
2021/04/30 23:37:38;;;;;;;41.83;36.67;;;9.20;99.90;;;;;;10478267;28;20224;-78
2021/04/30 23:42:40;;;;;;;41.80;37.40;;;9.20;99.90;;;;;;10507013;28;20196;-80
2021/04/30 23:47:42;;;;;;;42.07;36.93;;;9.20;99.90;;;;;;10489042;28;20529;-82
2021/04/30 23:52:44;;;;;;;40.07;35.50;;;9.30;99.90;;;;;;10485610;28;20239;-82
2021/04/30 23:57:47;;;;;;;36.27;32.40;;;9.30;99.90;;;;;;10472133;28;20408;-79
